Portada
METAR-TAF:

METAR-TAF

Aeroports :

Ishigaki, Japó

latitud: 24-20N, longitud: 124-10E, altitud: 6 m

Observació

L'informe es va fer fa 18 minuts, a les 03:00 UTC
Vent 8 kt del Est/Nord-Est
Temperatura 27°C
Humitat 79%
Pressió 1016 hPa
Visibilitat 10 km o més
Escasses núvols a una alçada de 1200 ft
Núvols disperses

METAR: ROIG 040300Z 06008KT 9999 FEW012 SCT/// 27/23 Q1016

Hora: 12:18 (03:18 UTC)

Pronòstic

L'informe es va fer fa 4 hores i 13 minuts, a les 23:05 UTC
Pronòstic vàlid del 04 a les 00 UTC al 05 a les 06 UTC
Vent 10 kt del Nord/Nord-Est
Visibilitat 10 km o més
Escasses núvols a una alçada de 1500 ft
Cel ennuvolat a una alçada de 2500 ft

TAF: ROIG 032305Z 0400/0506 03010KT 9999 FEW015 BKN025

Observacions i pronòstics meteorològics de més de 4000 aeroports (METAR i TAF).

Les estacions disponibles són els punts grocs i vermells al mapa.

Posi el ratolí al punt desitjat per veure el nom de l'estació.

Feu clic per veure les observacions i els pronòstics meteorològics.

Per canviar el mapa: feu clic els botons verds amb una creu de color negre per apropar; al botó verd amb un guió per allunyar la imatge; o en les fletxes verdes per a mapes adjacents.


METAR-TAF: